Time;durP1;ratioP1;P1;durP2;ratioP2;P2;SDS_P1;SDS_P2;PMS_P1;PMS_P2;Temp;Humidity;BMP_temperature;BMP_pressure;BME280_temperature;BME280_humidity;BME280_pressure;Samples;Min_cycle;Max_cycle;Signal;HPM_P1;HPM_P2
2024/01/16 00:00:39;;;;;;;10.43;4.50;;;-1.80;99.90;;;;;;4999342;28;20103;-64
2024/01/16 00:03:06;;;;;;;14.07;5.18;;;-2.00;99.90;;;;;;5004484;28;20112;-64
2024/01/16 00:05:33;;;;;;;12.02;4.60;;;-2.00;99.90;;;;;;4996922;28;20056;-64
2024/01/16 00:08:00;;;;;;;10.55;4.40;;;-2.00;99.90;;;;;;5001157;28;20080;-64
2024/01/16 00:10:27;;;;;;;10.98;5.13;;;-1.60;99.90;;;;;;5005689;28;20053;-64
2024/01/16 00:12:54;;;;;;;15.45;4.50;;;-2.10;99.90;;;;;;5011367;28;20128;-63
2024/01/16 00:15:21;;;;;;;15.02;4.50;;;-2.10;99.90;;;;;;5001739;28;20162;-63
2024/01/16 00:17:48;;;;;;;12.20;5.25;;;-2.10;99.90;;;;;;5003275;28;20450;-63
2024/01/16 00:20:15;;;;;;;12.70;4.97;;;-2.00;99.90;;;;;;5002602;28;20046;-63
2024/01/16 00:22:42;;;;;;;15.55;5.03;;;-2.00;99.90;;;;;;5005018;28;20041;-63
2024/01/16 00:25:09;;;;;;;8.98;4.43;;;-2.00;99.90;;;;;;4997862;28;20070;-64
2024/01/16 00:27:36;;;;;;;9.48;4.05;;;-2.00;99.90;;;;;;5005485;28;20061;-63
2024/01/16 00:30:03;;;;;;;13.48;4.72;;;-2.00;99.90;;;;;;5003526;28;20456;-63
2024/01/16 00:32:30;;;;;;;10.88;4.90;;;-2.00;99.90;;;;;;5002928;28;20054;-63
2024/01/16 00:34:57;;;;;;;14.55;4.47;;;-1.80;99.90;;;;;;5004846;28;20093;-64
2024/01/16 00:37:24;;;;;;;10.63;4.15;;;-2.10;99.90;;;;;;5019340;28;20068;-63
2024/01/16 00:39:51;;;;;;;13.77;5.10;;;-2.10;99.90;;;;;;5004075;28;20112;-63
2024/01/16 00:42:18;;;;;;;10.75;4.40;;;-2.10;99.90;;;;;;5013077;28;20390;-62
2024/01/16 00:44:44;;;;;;;8.80;3.90;;;-2.00;99.90;;;;;;5003995;28;20107;-63
2024/01/16 00:47:11;;;;;;;10.85;4.82;;;-2.00;99.90;;;;;;5007473;28;20093;-62
2024/01/16 00:49:38;;;;;;;10.63;3.70;;;-2.10;99.90;;;;;;5002823;28;20065;-65
2024/01/16 00:52:06;;;;;;;13.63;4.03;;;-2.10;99.90;;;;;;5006749;28;20061;-63
2024/01/16 00:54:33;;;;;;;9.77;5.20;;;-2.00;99.90;;;;;;5002038;28;20100;-62
2024/01/16 00:57:00;;;;;;;10.63;3.70;;;-2.00;99.90;;;;;;5001225;28;20056;-63
2024/01/16 00:59:27;;;;;;;12.10;3.97;;;-2.00;99.90;;;;;;5005233;28;20055;-63
2024/01/16 01:01:54;;;;;;;11.45;4.03;;;-2.00;99.90;;;;;;5001981;28;20397;-63
2024/01/16 01:04:20;;;;;;;11.82;4.50;;;-2.10;99.90;;;;;;5004620;28;20050;-63
2024/01/16 01:06:47;;;;;;;7.07;3.08;;;-2.00;99.90;;;;;;4999535;28;20053;-63
2024/01/16 01:09:14;;;;;;;11.32;3.20;;;-2.10;99.90;;;;;;5009538;28;20045;-63
2024/01/16 01:11:41;;;;;;;13.02;4.07;;;-2.00;99.90;;;;;;5002980;28;20417;-64
2024/01/16 01:14:08;;;;;;;12.70;4.18;;;-2.00;99.90;;;;;;5009645;28;20050;-63
2024/01/16 01:16:35;;;;;;;12.45;4.07;;;-2.00;99.90;;;;;;4999149;28;20053;-64
2024/01/16 01:19:03;;;;;;;9.90;3.67;;;-1.90;99.90;;;;;;4999156;28;20503;-64
2024/01/16 01:21:30;;;;;;;8.57;3.88;;;-1.30;99.90;;;;;;5003853;28;20069;-63
2024/01/16 01:23:57;;;;;;;9.95;3.90;;;-2.00;99.90;;;;;;5006258;28;20042;-64
2024/01/16 01:26:23;;;;;;;7.18;3.83;;;-1.90;99.90;;;;;;5002870;28;20143;-63
2024/01/16 01:28:50;;;;;;;8.32;3.63;;;-2.00;99.90;;;;;;5012993;28;20508;-63
2024/01/16 01:31:17;;;;;;;8.05;4.00;;;-2.00;99.90;;;;;;5002414;28;20061;-64
2024/01/16 01:33:44;;;;;;;10.32;4.00;;;-2.00;99.90;;;;;;5010997;28;20131;-63
2024/01/16 01:36:11;;;;;;;10.55;4.20;;;-2.00;99.90;;;;;;5010775;28;20042;-63
2024/01/16 01:38:38;;;;;;;7.10;3.17;;;-1.80;99.90;;;;;;5000762;28;20046;-63
2024/01/16 01:41:05;;;;;;;12.40;4.85;;;-2.00;99.90;;;;;;5001594;28;20042;-63
2024/01/16 01:43:34;;;;;;;10.52;3.60;;;-1.90;99.90;;;;;;5000519;28;20118;-63
2024/01/16 01:46:12;;;;;;;11.10;4.28;;;-1.90;99.90;;;;;;4999214;28;20049;-64
2024/01/16 01:48:42;;;;;;;6.75;3.42;;;-1.90;99.90;;;;;;5003207;28;20057;-64
2024/01/16 01:51:10;;;;;;;9.23;4.03;;;-2.00;99.90;;;;;;5004892;28;21056;-64
2024/01/16 01:53:37;;;;;;;12.27;5.18;;;-1.90;99.90;;;;;;5003763;28;20507;-64
2024/01/16 01:56:07;;;;;;;8.85;4.43;;;-2.00;99.90;;;;;;5005997;28;20103;-64
2024/01/16 01:58:34;;;;;;;12.63;3.80;;;-1.90;99.90;;;;;;4998902;28;20052;-65
2024/01/16 02:01:01;;;;;;;6.95;3.78;;;-1.90;99.90;;;;;;5005227;28;20054;-64
2024/01/16 02:03:29;;;;;;;12.73;3.70;;;-1.80;99.90;;;;;;5002297;28;20045;-64
2024/01/16 02:05:56;;;;;;;10.70;3.28;;;-1.30;99.90;;;;;;5002324;28;20056;-63
2024/01/16 02:08:23;;;;;;;8.38;3.38;;;-1.80;99.90;;;;;;5005200;28;20065;-63
2024/01/16 02:10:50;;;;;;;11.68;3.35;;;-1.80;99.90;;;;;;5003837;28;20366;-63
2024/01/16 02:13:22;;;;;;;15.45;5.38;;;-1.80;99.90;;;;;;5003362;28;20101;-64
2024/01/16 02:15:50;;;;;;;7.93;4.07;;;-1.80;99.90;;;;;;5009925;28;20046;-64
2024/01/16 02:18:17;;;;;;;10.18;3.22;;;-1.80;99.90;;;;;;5008103;28;20042;-64
2024/01/16 02:20:45;;;;;;;11.27;4.18;;;-1.80;99.90;;;;;;5010925;28;20042;-63
2024/01/16 02:23:13;;;;;;;7.43;3.80;;;-1.90;99.90;;;;;;4990081;28;20053;-64
2024/01/16 02:25:43;;;;;;;5.13;3.20;;;-1.90;99.90;;;;;;4986410;28;20041;-64
2024/01/16 02:28:10;;;;;;;7.72;3.40;;;-1.90;99.90;;;;;;5000989;28;20050;-63
2024/01/16 02:30:37;;;;;;;8.25;3.55;;;-1.90;99.90;;;;;;5003443;28;20042;-64
2024/01/16 02:33:04;;;;;;;7.50;3.13;;;-1.60;99.90;;;;;;5002929;28;20501;-63
2024/01/16 02:35:31;;;;;;;11.07;3.72;;;-1.90;99.90;;;;;;4997235;28;20045;-63
2024/01/16 02:37:58;;;;;;;8.70;4.13;;;-1.90;99.90;;;;;;5005793;28;20054;-63
2024/01/16 02:40:25;;;;;;;6.63;3.85;;;-1.90;99.90;;;;;;5001011;28;20046;-63
2024/01/16 02:42:52;;;;;;;10.68;3.92;;;-1.90;99.90;;;;;;5002512;28;20045;-63
2024/01/16 02:45:19;;;;;;;11.90;4.00;;;-1.90;99.90;;;;;;5003127;28;20049;-62
2024/01/16 02:47:46;;;;;;;10.32;3.65;;;-1.90;99.90;;;;;;5002762;28;20096;-63
2024/01/16 02:50:13;;;;;;;6.80;3.45;;;-2.00;99.90;;;;;;5004468;28;20154;-63
2024/01/16 02:52:40;;;;;;;11.45;5.00;;;-2.00;99.90;;;;;;5011508;28;20050;-63
2024/01/16 02:55:07;;;;;;;10.68;4.18;;;-2.00;99.90;;;;;;4999547;28;20073;-63
2024/01/16 02:57:34;;;;;;;7.95;3.00;;;-2.10;99.90;;;;;;5009152;28;20065;-63
2024/01/16 03:00:01;;;;;;;8.35;3.53;;;-2.10;99.90;;;;;;5000304;28;20572;-62
2024/01/16 03:02:28;;;;;;;12.68;4.75;;;-2.10;99.90;;;;;;5007914;28;20101;-62
2024/01/16 03:04:55;;;;;;;11.02;3.10;;;-2.20;99.90;;;;;;5002183;28;20070;-63
2024/01/16 03:07:22;;;;;;;9.50;2.85;;;-2.20;99.90;;;;;;5006233;28;20085;-62
2024/01/16 03:09:49;;;;;;;9.93;2.97;;;-2.20;99.90;;;;;;5000811;28;20104;-62
2024/01/16 03:12:16;;;;;;;8.13;3.97;;;-2.20;99.90;;;;;;5010611;28;20061;-63
2024/01/16 03:14:42;;;;;;;7.95;2.63;;;-2.20;99.90;;;;;;5013569;28;20073;-62
2024/01/16 03:17:09;;;;;;;5.68;2.95;;;-2.20;99.90;;;;;;5001735;28;20042;-63
2024/01/16 03:19:37;;;;;;;5.47;2.47;;;-2.30;99.90;;;;;;5002057;28;20436;-63
2024/01/16 03:22:04;;;;;;;8.90;2.65;;;-2.20;99.90;;;;;;5010414;28;20074;-63
2024/01/16 03:24:31;;;;;;;12.25;2.88;;;-2.20;99.90;;;;;;5007290;28;20056;-63
2024/01/16 03:26:57;;;;;;;9.38;3.20;;;-2.20;99.90;;;;;;5004091;28;20049;-64
2024/01/16 03:29:24;;;;;;;7.93;3.33;;;-2.20;99.90;;;;;;5008823;28;20077;-63
2024/01/16 03:31:51;;;;;;;8.27;2.60;;;-2.20;99.90;;;;;;5005409;28;20128;-63
2024/01/16 03:34:18;;;;;;;10.73;3.22;;;-2.30;99.90;;;;;;5007890;28;20081;-63
2024/01/16 03:36:45;;;;;;;6.43;2.97;;;-2.30;99.90;;;;;;5042665;28;20057;-63
2024/01/16 03:39:12;;;;;;;6.65;2.42;;;-2.30;99.90;;;;;;5009291;28;20431;-63
2024/01/16 03:41:38;;;;;;;6.25;2.30;;;-2.30;99.90;;;;;;5002682;28;20053;-63
2024/01/16 03:44:05;;;;;;;7.38;2.83;;;-2.10;99.90;;;;;;5007951;28;20050;-63
2024/01/16 03:46:32;;;;;;;4.50;2.45;;;-2.30;99.90;;;;;;5003366;28;20136;-63
2024/01/16 03:48:59;;;;;;;8.50;2.38;;;-2.30;99.90;;;;;;5006546;28;20693;-63
2024/01/16 03:51:26;;;;;;;5.80;2.38;;;-2.30;99.90;;;;;;5005753;28;20133;-63
2024/01/16 03:53:53;;;;;;;6.50;3.40;;;-2.30;99.90;;;;;;5005256;28;20041;-63
2024/01/16 03:56:19;;;;;;;5.82;2.78;;;-2.30;99.90;;;;;;5011912;28;20041;-63
2024/01/16 03:58:46;;;;;;;7.35;3.30;;;-2.30;99.90;;;;;;5010775;28;20042;-63
2024/01/16 04:01:14;;;;;;;12.02;3.30;;;-2.30;99.90;;;;;;5012474;28;20046;-63
2024/01/16 04:03:41;;;;;;;9.90;2.92;;;-2.30;99.90;;;;;;5007017;28;20216;-63
2024/01/16 04:06:17;;;;;;;10.43;2.75;;;-2.40;99.90;;;;;;5004992;28;20050;-63
2024/01/16 04:08:45;;;;;;;5.38;2.42;;;-1.40;99.90;;;;;;5003548;28;20295;-63
2024/01/16 04:11:15;;;;;;;9.32;3.17;;;-2.40;99.90;;;;;;5020463;28;20461;-63
2024/01/16 04:13:42;;;;;;;6.65;3.13;;;-2.40;99.90;;;;;;5011399;28;20060;-63
2024/01/16 04:16:09;;;;;;;5.88;2.30;;;-2.40;99.90;;;;;;5012665;28;20069;-64
2024/01/16 04:18:39;;;;;;;10.65;3.53;;;-2.40;99.90;;;;;;5031387;28;20391;-63
2024/01/16 04:21:06;;;;;;;6.15;2.53;;;-2.40;99.90;;;;;;5007184;28;20116;-63
2024/01/16 04:23:33;;;;;;;6.72;2.88;;;-2.50;99.90;;;;;;5005563;28;20092;-63
2024/01/16 04:26:00;;;;;;;9.90;2.90;;;-2.40;99.90;;;;;;5006051;28;20076;-63
2024/01/16 04:28:27;;;;;;;10.05;3.35;;;-2.50;99.90;;;;;;5002603;28;20111;-63
2024/01/16 04:30:57;;;;;;;3.58;2.17;;;-2.50;99.90;;;;;;5010912;28;20048;-64
2024/01/16 04:33:24;;;;;;;5.97;2.72;;;-2.40;99.90;;;;;;5001081;28;20046;-64
2024/01/16 04:35:51;;;;;;;9.00;2.67;;;-1.80;99.90;;;;;;5006224;28;20049;-63
2024/01/16 04:38:18;;;;;;;8.27;2.63;;;-2.40;99.90;;;;;;5005674;28;20478;-63
2024/01/16 04:40:45;;;;;;;9.48;3.30;;;-2.50;99.90;;;;;;5007951;28;20038;-63
2024/01/16 04:43:12;;;;;;;6.45;2.72;;;-2.50;99.90;;;;;;5000625;28;20469;-63
2024/01/16 04:45:39;;;;;;;7.05;3.00;;;-2.50;99.90;;;;;;5010367;28;20089;-64
2024/01/16 04:48:06;;;;;;;4.03;2.63;;;-2.50;99.90;;;;;;5009008;28;20050;-63
2024/01/16 04:50:33;;;;;;;5.88;2.97;;;-2.50;99.90;;;;;;5002630;28;20221;-63
2024/01/16 04:53:00;;;;;;;7.38;2.95;;;-2.50;99.90;;;;;;5006311;28;20060;-63
2024/01/16 04:55:28;;;;;;;7.38;3.22;;;-2.50;99.90;;;;;;5005355;28;20493;-64
2024/01/16 04:57:55;;;;;;;5.78;3.22;;;-2.50;99.90;;;;;;5002647;28;20050;-65
2024/01/16 05:00:22;;;;;;;5.53;3.05;;;-2.50;99.90;;;;;;4996165;28;20090;-63
2024/01/16 05:02:49;;;;;;;9.23;2.78;;;-2.50;99.90;;;;;;5006804;28;20049;-63
2024/01/16 05:05:15;;;;;;;11.35;2.55;;;-2.50;99.90;;;;;;5003747;28;20056;-63
2024/01/16 05:07:43;;;;;;;7.60;2.58;;;-2.50;99.90;;;;;;5005192;28;20042;-63
2024/01/16 05:10:12;;;;;;;6.38;2.95;;;-2.50;99.90;;;;;;4998415;28;20065;-63
2024/01/16 05:12:40;;;;;;;8.23;2.47;;;-2.50;99.90;;;;;;5002412;28;20167;-63
2024/01/16 05:15:07;;;;;;;6.10;2.13;;;-2.60;99.90;;;;;;5002935;28;20050;-63
2024/01/16 05:17:34;;;;;;;6.47;2.38;;;-2.70;99.90;;;;;;5022157;28;20072;-64
2024/01/16 05:20:03;;;;;;;6.00;2.40;;;-2.70;99.90;;;;;;4999907;28;20474;-63
2024/01/16 05:22:30;;;;;;;4.93;1.98;;;-2.70;99.90;;;;;;5010966;28;20565;-63
2024/01/16 05:24:58;;;;;;;7.90;2.60;;;-2.70;99.90;;;;;;5004062;28;20395;-63
2024/01/16 05:27:25;;;;;;;8.07;2.40;;;-2.70;99.90;;;;;;5013772;28;20049;-64
2024/01/16 05:29:52;;;;;;;7.15;2.38;;;-2.70;99.90;;;;;;5004048;28;20099;-64
2024/01/16 05:32:19;;;;;;;6.25;3.53;;;-2.60;99.90;;;;;;4996339;28;20050;-63
2024/01/16 05:34:46;;;;;;;10.25;2.85;;;-2.60;99.90;;;;;;4999072;28;20045;-63
2024/01/16 05:37:13;;;;;;;9.75;3.38;;;-2.60;99.90;;;;;;5004222;28;20113;-63
2024/01/16 05:39:39;;;;;;;5.50;2.13;;;-2.60;99.90;;;;;;5005293;28;20050;-63
2024/01/16 05:42:06;;;;;;;15.63;4.47;;;-2.60;99.90;;;;;;5006903;28;20053;-63
2024/01/16 05:44:33;;;;;;;6.63;2.45;;;-2.60;99.90;;;;;;5012111;28;21043;-66
2024/01/16 05:47:00;;;;;;;6.38;2.05;;;-2.60;99.90;;;;;;5009442;28;20049;-64
2024/01/16 05:49:27;;;;;;;5.75;2.72;;;-2.50;99.90;;;;;;5003003;28;20045;-64
2024/01/16 05:51:54;;;;;;;5.57;2.50;;;-2.60;99.90;;;;;;5000169;28;20050;-64
2024/01/16 05:54:20;;;;;;;6.38;2.30;;;-2.60;99.90;;;;;;4999746;28;20054;-63
2024/01/16 05:56:47;;;;;;;5.38;2.10;;;-2.60;99.90;;;;;;4999947;28;20042;-64
2024/01/16 05:59:14;;;;;;;8.05;1.80;;;-2.60;99.90;;;;;;5006836;28;20049;-64
2024/01/16 06:01:41;;;;;;;3.50;1.63;;;-2.60;99.90;;;;;;4995860;28;20532;-64
2024/01/16 06:04:08;;;;;;;8.30;2.40;;;-2.60;99.90;;;;;;5001683;28;20153;-63
2024/01/16 06:06:37;;;;;;;4.18;1.95;;;-2.50;99.90;;;;;;5002273;28;20077;-63
2024/01/16 06:09:05;;;;;;;7.60;2.13;;;-2.60;99.90;;;;;;4995916;28;20273;-64
2024/01/16 06:11:32;;;;;;;33.38;8.45;;;-2.50;99.90;;;;;;5000579;28;20069;-63
2024/01/16 06:13:59;;;;;;;7.18;2.90;;;-2.50;99.90;;;;;;5020859;28;20057;-63
2024/01/16 06:16:26;;;;;;;7.28;2.42;;;-2.50;99.90;;;;;;5003061;28;20042;-64
2024/01/16 06:18:53;;;;;;;8.60;2.95;;;-2.50;99.90;;;;;;5019501;28;20079;-63
2024/01/16 06:21:20;;;;;;;12.07;2.25;;;-2.50;99.90;;;;;;5009209;28;20193;-64
2024/01/16 06:23:50;;;;;;;9.30;2.95;;;-2.60;99.90;;;;;;5000054;28;20050;-63
2024/01/16 06:26:17;;;;;;;5.53;2.35;;;-2.60;99.90;;;;;;5003902;28;20050;-64
2024/01/16 06:28:44;;;;;;;6.65;2.17;;;-2.60;99.90;;;;;;5004894;28;20076;-64
2024/01/16 06:31:11;;;;;;;7.03;2.65;;;-2.60;99.90;;;;;;5001790;28;20117;-63
2024/01/16 06:33:38;;;;;;;11.93;3.08;;;-2.50;99.90;;;;;;5006825;28;20054;-63
2024/01/16 06:36:06;;;;;;;9.05;2.60;;;-2.50;99.90;;;;;;5006914;28;20050;-64
2024/01/16 06:38:33;;;;;;;10.13;1.98;;;-2.50;99.90;;;;;;5011161;28;20108;-63
2024/01/16 06:41:00;;;;;;;11.20;2.47;;;-2.40;99.90;;;;;;5009087;28;20050;-63
2024/01/16 06:43:27;;;;;;;6.03;2.33;;;-2.40;99.90;;;;;;5001121;28;20046;-63
2024/01/16 06:45:54;;;;;;;4.93;2.38;;;-2.30;99.90;;;;;;5006812;28;20560;-63
2024/01/16 06:48:21;;;;;;;10.45;2.47;;;-2.30;99.90;;;;;;5005613;28;20128;-63
2024/01/16 06:50:48;;;;;;;7.65;2.05;;;-2.30;99.90;;;;;;5012387;28;20096;-63
2024/01/16 06:53:15;;;;;;;9.52;2.65;;;-2.30;99.90;;;;;;5006013;28;20049;-62
2024/01/16 06:55:43;;;;;;;7.72;3.03;;;-2.20;99.90;;;;;;5003297;28;20045;-63
2024/01/16 06:58:10;;;;;;;10.55;2.65;;;-2.20;99.90;;;;;;4657590;28;9999973;-63
2024/01/16 07:00:37;;;;;;;5.97;2.42;;;-2.20;99.90;;;;;;5005478;28;20114;-64
2024/01/16 07:03:04;;;;;;;6.90;2.22;;;-2.10;99.90;;;;;;5001726;28;20197;-63
2024/01/16 07:05:31;;;;;;;4.90;2.00;;;-2.10;99.90;;;;;;5012670;28;20081;-62
2024/01/16 07:07:58;;;;;;;9.23;2.17;;;-2.00;99.90;;;;;;4996869;28;20057;-64
2024/01/16 07:10:25;;;;;;;9.88;2.85;;;-2.00;99.90;;;;;;4998234;28;20288;-63
2024/01/16 07:12:52;;;;;;;11.82;3.00;;;-2.00;99.90;;;;;;5001390;28;20076;-63
2024/01/16 07:15:18;;;;;;;4.85;1.92;;;-2.00;99.90;;;;;;5000702;28;20124;-62
2024/01/16 07:17:45;;;;;;;7.63;2.45;;;-2.00;99.90;;;;;;5001086;28;20050;-62
2024/01/16 07:20:13;;;;;;;5.68;2.83;;;-2.10;99.90;;;;;;5003663;28;20132;-62
2024/01/16 07:22:39;;;;;;;6.47;2.65;;;-2.10;99.90;;;;;;4999899;28;20046;-62
2024/01/16 07:25:07;;;;;;;8.18;2.78;;;-2.20;99.90;;;;;;4995188;28;20061;-63
2024/01/16 07:27:34;;;;;;;9.55;2.22;;;-2.20;99.90;;;;;;5002479;28;20056;-62
2024/01/16 07:30:01;;;;;;;12.50;2.67;;;-2.30;99.90;;;;;;5003542;28;20113;-62
2024/01/16 07:32:28;;;;;;;6.55;2.45;;;-2.30;99.90;;;;;;4996739;28;20057;-63
2024/01/16 07:34:58;;;;;;;8.50;2.97;;;-2.30;99.90;;;;;;5001174;28;20050;-63
2024/01/16 07:37:25;;;;;;;13.15;2.47;;;-2.30;99.90;;;;;;5004700;28;20050;-72
2024/01/16 07:39:52;;;;;;;6.22;3.30;;;-2.30;99.90;;;;;;4998811;28;20194;-63
2024/01/16 07:42:19;;;;;;;4.80;2.40;;;-2.40;99.90;;;;;;4997135;28;20915;-61
2024/01/16 07:44:45;;;;;;;5.80;2.25;;;-2.40;99.90;;;;;;4997467;28;20054;-63
2024/01/16 07:47:12;;;;;;;4.15;2.83;;;-2.40;99.90;;;;;;5001530;28;20050;-63
2024/01/16 07:49:39;;;;;;;12.20;3.10;;;-2.40;99.90;;;;;;4998653;28;20129;-62
2024/01/16 07:52:06;;;;;;;5.22;2.17;;;-2.40;99.90;;;;;;4990385;28;20378;-62
2024/01/16 07:54:33;;;;;;;11.45;3.47;;;-2.40;99.90;;;;;;4998258;28;20053;-63
2024/01/16 07:57:00;;;;;;;6.53;3.53;;;-2.30;99.90;;;;;;4997874;28;20057;-63
2024/01/16 07:59:27;;;;;;;8.35;2.47;;;-2.30;99.90;;;;;;5008545;28;20541;-64
2024/01/16 08:01:54;;;;;;;8.40;2.75;;;-2.20;99.90;;;;;;5002419;28;20065;-63
2024/01/16 08:04:20;;;;;;;11.32;2.80;;;-2.20;99.90;;;;;;4998174;28;20077;-62
2024/01/16 08:06:47;;;;;;;5.32;2.53;;;-2.20;99.90;;;;;;5000244;28;20614;-62
2024/01/16 08:09:14;;;;;;;4.35;2.10;;;-2.30;99.90;;;;;;5008378;28;20061;-61
2024/01/16 08:11:41;;;;;;;14.45;3.17;;;-2.30;99.90;;;;;;4994323;28;20050;-61
2024/01/16 08:14:08;;;;;;;9.23;2.63;;;-2.40;99.90;;;;;;5008327;28;20046;-62
2024/01/16 08:16:35;;;;;;;10.75;2.28;;;-2.30;99.90;;;;;;4996985;28;20145;-61
2024/01/16 08:19:03;;;;;;;10.43;2.65;;;-2.40;99.90;;;;;;4999451;28;20046;-61
2024/01/16 08:21:30;;;;;;;9.85;2.22;;;-2.40;99.90;;;;;;4999750;28;20045;-62
2024/01/16 08:23:57;;;;;;;7.55;2.90;;;-2.30;99.90;;;;;;5001990;28;20390;-62
2024/01/16 08:26:24;;;;;;;9.95;2.60;;;-2.30;99.90;;;;;;4994170;28;20803;-62
2024/01/16 08:28:51;;;;;;;10.07;2.70;;;-2.30;99.90;;;;;;4998552;28;20085;-67
2024/01/16 08:31:18;;;;;;;11.15;2.58;;;-2.30;99.90;;;;;;5012014;28;20119;-61
2024/01/16 08:33:47;;;;;;;3.88;2.70;;;-2.30;99.90;;;;;;4996681;28;20053;-61
2024/01/16 08:36:18;;;;;;;14.27;3.35;;;-2.30;99.90;;;;;;4998193;28;20416;-61
2024/01/16 08:38:45;;;;;;;10.40;3.13;;;-2.30;99.90;;;;;;4999342;28;20576;-61
2024/01/16 08:41:13;;;;;;;5.20;3.10;;;-2.20;99.90;;;;;;4998799;28;20829;-61
2024/01/16 08:43:39;;;;;;;6.15;2.78;;;-2.20;99.90;;;;;;5004498;28;20559;-62
2024/01/16 08:46:06;;;;;;;8.70;3.30;;;-2.30;99.90;;;;;;4999675;28;20567;-62
2024/01/16 08:48:33;;;;;;;6.00;2.90;;;-2.20;99.90;;;;;;4997805;28;20430;-62
2024/01/16 08:51:01;;;;;;;5.30;2.92;;;-2.20;99.90;;;;;;4999172;28;20520;-61
2024/01/16 08:53:30;;;;;;;11.38;3.30;;;-2.20;99.90;;;;;;4999529;28;20046;-61
2024/01/16 08:55:57;;;;;;;11.07;2.70;;;-2.20;99.90;;;;;;5008573;28;20058;-62
2024/01/16 08:58:24;;;;;;;12.65;3.92;;;-2.10;99.90;;;;;;4996890;28;20453;-61
2024/01/16 09:00:51;;;;;;;9.60;3.22;;;-1.90;99.90;;;;;;5003810;28;20089;-63
2024/01/16 09:03:18;;;;;;;9.80;3.75;;;-2.00;99.90;;;;;;4997311;28;20468;-62
2024/01/16 09:05:45;;;;;;;8.70;3.78;;;-1.90;99.90;;;;;;5000843;28;20057;-62
2024/01/16 09:08:12;;;;;;;9.68;2.88;;;-1.80;99.90;;;;;;5007013;28;20133;-62
2024/01/16 09:10:39;;;;;;;7.82;2.47;;;-1.70;99.90;;;;;;4988121;28;20073;-62
2024/01/16 09:13:07;;;;;;;6.47;3.20;;;-1.60;99.90;;;;;;5005846;28;20131;-61
2024/01/16 09:15:34;;;;;;;12.73;3.08;;;-1.50;99.90;;;;;;5010566;28;20054;-62
2024/01/16 09:18:01;;;;;;;6.43;2.58;;;-1.50;99.90;;;;;;5000590;28;20054;-62
2024/01/16 09:20:28;;;;;;;6.75;1.90;;;-1.50;99.90;;;;;;5002772;28;20073;-62
2024/01/16 09:22:55;;;;;;;8.10;2.28;;;-1.40;99.90;;;;;;4997915;28;20129;-62
2024/01/16 09:25:24;;;;;;;5.30;2.38;;;-1.30;99.90;;;;;;5008729;28;20046;-61
2024/01/16 09:27:51;;;;;;;10.50;2.38;;;-1.30;99.90;;;;;;5001420;28;20517;-61
2024/01/16 09:30:19;;;;;;;9.52;1.98;;;-1.20;99.90;;;;;;5007093;28;20050;-62
2024/01/16 09:32:45;;;;;;;8.05;1.92;;;-1.10;99.90;;;;;;5003356;28;20500;-62
2024/01/16 09:35:13;;;;;;;8.82;2.67;;;-1.00;99.90;;;;;;5005274;28;20544;-61
2024/01/16 09:37:39;;;;;;;7.13;1.83;;;-0.90;99.90;;;;;;5001646;28;20042;-62
2024/01/16 09:40:07;;;;;;;10.45;2.42;;;-0.80;99.90;;;;;;5005983;28;20060;-62
2024/01/16 09:42:34;;;;;;;10.25;2.47;;;-0.80;99.90;;;;;;5000462;28;20042;-62
2024/01/16 09:45:02;;;;;;;18.20;4.07;;;-0.70;99.90;;;;;;5001862;28;20482;-62
2024/01/16 09:47:33;;;;;;;6.55;1.77;;;-0.60;99.90;;;;;;5019890;28;20108;-62
2024/01/16 09:50:02;;;;;;;13.75;2.17;;;-0.60;99.90;;;;;;4999456;28;20525;-62
2024/01/16 09:52:29;;;;;;;5.93;1.77;;;-0.50;99.90;;;;;;5003079;28;20081;-62
2024/01/16 09:54:56;;;;;;;9.52;1.98;;;-0.30;99.90;;;;;;4999499;28;20446;-63
2024/01/16 09:57:25;;;;;;;6.70;2.30;;;-0.20;99.90;;;;;;5007763;28;20042;-62
2024/01/16 09:59:52;;;;;;;11.73;2.08;;;-0.10;99.90;;;;;;4999371;28;20456;-63
2024/01/16 10:02:20;;;;;;;11.90;2.63;;;-0.10;99.90;;;;;;5010275;28;20132;-63
2024/01/16 10:04:48;;;;;;;4.82;2.10;;;0.00;99.90;;;;;;5012458;28;20046;-63
2024/01/16 10:07:15;;;;;;;6.07;1.95;;;0.10;99.90;;;;;;4999080;28;20081;-62
2024/01/16 10:09:43;;;;;;;9.57;1.75;;;0.20;99.90;;;;;;4999314;28;20046;-63
2024/01/16 10:12:10;;;;;;;5.60;2.67;;;0.30;99.90;;;;;;5008804;28;20323;-62
2024/01/16 10:14:38;;;;;;;6.50;1.65;;;0.40;99.90;;;;;;4990325;28;20136;-63
2024/01/16 10:17:05;;;;;;;10.88;1.55;;;0.50;99.90;;;;;;5007029;28;20045;-62
2024/01/16 10:19:33;;;;;;;3.17;1.38;;;0.50;99.90;;;;;;5000576;28;20125;-63
2024/01/16 10:22:14;;;;;;;6.18;1.60;;;0.60;99.90;;;;;;5013868;28;20135;-62
2024/01/16 10:24:41;;;;;;;4.35;1.88;;;0.70;99.90;;;;;;4990515;28;20744;-63
2024/01/16 10:27:08;;;;;;;5.70;1.80;;;0.80;99.90;;;;;;4990715;28;20110;-62
2024/01/16 10:29:36;;;;;;;6.75;1.90;;;0.90;99.90;;;;;;4995513;28;20043;-62
2024/01/16 10:32:32;;;;;;;5.53;1.55;;;0.90;99.90;;;;;;5006891;28;20401;-63
2024/01/16 10:35:08;;;;;;;4.95;1.67;;;1.10;99.90;;;;;;4997291;28;20046;-63
2024/01/16 10:37:51;;;;;;;10.27;1.67;;;1.20;99.90;;;;;;5008039;28;20054;-64
2024/01/16 10:40:21;;;;;;;6.40;1.77;;;1.30;99.90;;;;;;5001461;28;20069;-64
2024/01/16 10:42:59;;;;;;;7.57;2.22;;;1.30;99.90;;;;;;5010175;28;20130;-63
2024/01/16 10:45:26;;;;;;;5.65;1.73;;;1.30;99.90;;;;;;5002464;28;20509;-63
2024/01/16 10:48:03;;;;;;;4.40;2.03;;;1.40;99.90;;;;;;5037965;28;20058;-64
2024/01/16 10:50:31;;;;;;;6.75;1.55;;;1.50;99.90;;;;;;5016529;28;20049;-63
2024/01/16 10:53:05;;;;;;;5.18;1.90;;;1.50;99.90;;;;;;4997937;28;20383;-63
2024/01/16 10:55:49;;;;;;;;;;;1.60;99.90;;;;;;5014059;28;20097;-63
2024/01/16 10:58:16;;;;;;;12.32;1.60;;;1.60;99.90;;;;;;5008326;28;19921;-62
2024/01/16 11:00:43;;;;;;;4.50;1.75;;;1.90;99.90;;;;;;4997075;28;20391;-62
2024/01/16 11:03:15;;;;;;;9.25;2.35;;;1.80;99.90;;;;;;4994675;28;20326;-62
2024/01/16 11:05:42;;;;;;;15.25;2.50;;;1.90;99.90;;;;;;5010422;28;20045;-62
2024/01/16 11:08:09;;;;;;;12.68;2.30;;;2.00;99.90;;;;;;5025275;28;20057;-63
2024/01/16 11:10:37;;;;;;;11.52;1.80;;;2.00;99.90;;;;;;5015145;28;20049;-62
2024/01/16 11:13:04;;;;;;;10.43;1.50;;;2.10;99.90;;;;;;5034691;28;20049;-63
2024/01/16 11:15:31;;;;;;;7.93;1.77;;;2.20;99.90;;;;;;5011051;28;20042;-62
2024/01/16 11:17:59;;;;;;;6.43;1.50;;;2.20;99.90;;;;;;5012934;28;20041;-62
2024/01/16 11:20:26;;;;;;;6.78;1.95;;;2.20;99.90;;;;;;5003938;28;20047;-63
2024/01/16 11:23:13;;;;;;;4.72;1.40;;;2.30;99.90;;;;;;5004788;28;20136;-62
2024/01/16 11:25:40;;;;;;;11.00;2.10;;;2.40;99.90;;;;;;5019377;28;20046;-63
2024/01/16 11:28:13;;;;;;;3.20;0.80;;;2.50;99.90;;;;;;5005021;28;20046;-62
2024/01/16 11:30:40;;;;;;;21.73;1.47;;;2.50;99.90;;;;;;5005358;28;20125;-62
2024/01/16 11:33:31;;;;;;;10.75;1.33;;;2.60;99.90;;;;;;5002180;28;20046;-62
2024/01/16 11:35:58;;;;;;;15.25;2.65;;;2.60;99.90;;;;;;5011542;28;20518;-62
2024/01/16 11:38:29;;;;;;;11.23;1.10;;;2.70;99.90;;;;;;5012686;28;20059;-63
2024/01/16 11:40:56;;;;;;;5.93;1.17;;;2.70;99.90;;;;;;4998746;28;20050;-62
2024/01/16 11:43:31;;;;;;;4.88;0.77;;;2.80;99.90;;;;;;5013922;28;20057;-62
2024/01/16 11:46:08;;;;;;;11.07;2.15;;;2.80;99.90;;;;;;5016459;28;20104;-62
2024/01/16 11:48:35;;;;;;;12.32;1.52;;;2.80;99.90;;;;;;5012842;28;20406;-62
2024/01/16 11:51:23;;;;;;;9.45;1.63;;;2.80;99.90;;;;;;5014749;28;20498;-63
2024/01/16 11:53:49;;;;;;;29.27;4.30;;;2.90;99.90;;;;;;5004705;28;20049;-62
2024/01/16 11:56:19;;;;;;;22.58;2.88;;;2.90;99.90;;;;;;5009822;28;20501;-62
2024/01/16 11:59:36;;;;;;;5.28;1.70;;;3.00;99.90;;;;;;5003210;28;20049;-63
2024/01/16 12:02:03;;;;;;;14.00;1.77;;;3.10;99.90;;;;;;5004428;28;20497;-62
2024/01/16 12:04:31;;;;;;;12.60;2.17;;;3.10;99.90;;;;;;5020216;28;20108;-62
2024/01/16 12:06:58;;;;;;;6.00;2.10;;;3.10;99.90;;;;;;5005470;28;20773;-63
2024/01/16 12:09:27;;;;;;;10.32;2.15;;;3.10;99.90;;;;;;5002270;28;20054;-63
2024/01/16 12:11:59;;;;;;;6.70;1.58;;;3.20;99.90;;;;;;5001192;28;20096;-63
2024/01/16 12:14:25;;;;;;;5.88;1.70;;;3.20;99.90;;;;;;5006223;28;20057;-63
2024/01/16 12:16:52;;;;;;;3.28;1.50;;;3.20;99.90;;;;;;5004511;28;20148;-63
2024/01/16 12:19:19;;;;;;;36.58;3.30;;;3.20;99.90;;;;;;5005085;28;20202;-63
2024/01/16 12:21:46;;;;;;;9.93;2.50;;;3.20;99.90;;;;;;5006242;28;20050;-62
2024/01/16 12:24:13;;;;;;;6.82;1.55;;;3.20;99.90;;;;;;5008052;28;20108;-63
2024/01/16 12:26:44;;;;;;;17.77;2.25;;;3.30;99.90;;;;;;5011451;28;20115;-63
2024/01/16 12:29:11;;;;;;;2.45;1.10;;;3.40;99.90;;;;;;4997720;28;20050;-63
2024/01/16 12:31:38;;;;;;;10.80;1.35;;;3.40;99.90;;;;;;5013068;28;20054;-63
2024/01/16 12:34:07;;;;;;;8.98;2.67;;;3.50;99.90;;;;;;5010494;28;20108;-63
2024/01/16 12:36:35;;;;;;;2.42;1.25;;;3.50;99.90;;;;;;5002839;28;20050;-63
2024/01/16 12:39:03;;;;;;;21.33;2.60;;;3.50;99.90;;;;;;5006998;28;20046;-63
2024/01/16 12:41:36;;;;;;;6.05;1.92;;;3.50;99.90;;;;;;5005703;28;20073;-63
2024/01/16 12:44:09;;;;;;;7.53;1.83;;;3.50;99.90;;;;;;5008939;28;20056;-63
2024/01/16 12:46:58;;;;;;;13.52;1.85;;;3.60;99.90;;;;;;5011955;28;20077;-63
2024/01/16 12:49:25;;;;;;;11.55;1.70;;;3.60;99.90;;;;;;5008337;28;20053;-63